Time;durP1;ratioP1;P1;durP2;ratioP2;P2;SDS_P1;SDS_P2;PMS_P1;PMS_P2;Temp;Humidity;BMP_temperature;BMP_pressure;BME280_temperature;BME280_humidity;BME280_pressure;Samples;Min_cycle;Max_cycle;Signal;HPM_P1;HPM_P2
2023/04/04 00:00:51;;;;;;;15.55;8.68;;;;;;;9.48;59.27;101095.31;4977280;28;20244;-80
2023/04/04 00:03:18;;;;;;;14.27;8.38;;;;;;;9.46;58.77;101081.31;4979999;28;20194;-81
2023/04/04 00:05:45;;;;;;;15.73;8.65;;;;;;;9.37;58.87;101053.75;4974158;28;20132;-81
2023/04/04 00:08:14;;;;;;;17.50;8.80;;;;;;;9.65;58.08;101085.22;4962611;28;20441;-80
2023/04/04 00:10:48;;;;;;;16.60;8.30;;;;;;;9.13;58.44;101022.03;4970779;28;20046;-82
2023/04/04 00:13:22;;;;;;;15.10;8.53;;;;;;;9.18;58.09;101046.34;4983939;28;20104;-79
2023/04/04 00:15:56;;;;;;;12.95;7.45;;;;;;;9.11;57.87;101031.03;4970728;28;20133;-82
2023/04/04 00:18:25;;;;;;;19.05;8.43;;;;;;;9.29;57.92;101065.88;4958748;28;20409;-82
2023/04/04 00:20:58;;;;;;;18.25;8.45;;;;;;;8.99;57.03;101038.13;4957343;28;20724;-82
2023/04/04 00:23:32;;;;;;;10.38;7.40;;;;;;;9.22;55.53;101075.25;4955088;28;20057;-81
2023/04/04 00:26:02;;;;;;;15.13;6.75;;;;;;;9.10;54.24;101061.13;4951450;28;20311;-82
2023/04/04 00:28:30;;;;;;;10.57;6.90;;;;;;;9.27;54.28;101076.63;4972261;28;20385;-83
2023/04/04 00:30:57;;;;;;;25.90;7.05;;;;;;;9.32;53.39;101077.09;4981022;28;20104;-81
2023/04/04 00:33:23;;;;;;;9.82;6.55;;;;;;;8.95;52.62;101005.69;4972056;28;20535;-81
2023/04/04 00:35:50;;;;;;;18.10;5.82;;;;;;;9.39;51.69;101058.91;4973857;28;20050;-82
2023/04/04 00:38:17;;;;;;;12.20;5.72;;;;;;;9.72;50.74;101078.50;4959846;28;20560;-80
2023/04/04 00:40:48;;;;;;;12.85;5.72;;;;;;;9.75;50.64;101079.09;4959833;28;20306;-81
2023/04/04 00:43:35;;;;;;;16.70;4.95;;;;;;;9.79;49.47;101074.41;4957151;28;20065;-83
2023/04/04 00:46:02;;;;;;;10.55;4.75;;;;;;;9.59;49.50;101052.94;4967442;28;20402;-80
2023/04/04 00:48:30;;;;;;;9.70;5.18;;;;;;;9.37;49.26;101032.53;4979258;28;20777;-80
2023/04/04 00:51:01;;;;;;;16.05;5.35;;;;;;;9.29;49.73;101028.78;4977810;28;20193;-80
2023/04/04 00:53:28;;;;;;;8.77;5.03;;;;;;;9.71;49.32;101068.81;4981918;28;20054;-82
2023/04/04 00:55:59;;;;;;;16.40;4.70;;;;;;;9.34;49.38;101035.41;4979687;28;20053;-81
2023/04/04 00:58:49;;;;;;;11.40;5.20;;;;;;;9.68;48.20;101056.66;4993824;28;20057;-82
2023/04/04 01:01:15;;;;;;;;;;;;;;;9.65;48.45;101067.50;4979490;28;20096;-82
2023/04/04 01:03:44;;;;;;;15.25;5.15;;;;;;;9.54;48.85;101071.00;5000577;28;20147;-81
2023/04/04 01:06:11;;;;;;;10.82;4.82;;;;;;;9.52;48.26;101078.22;4983323;28;20061;-81
2023/04/04 01:08:38;;;;;;;5.75;4.95;;;;;;;9.43;48.37;101081.56;4980309;28;20076;-81
2023/04/04 01:11:07;;;;;;;9.93;5.00;;;;;;;9.27;47.78;101051.91;4984879;28;20293;-81
2023/04/04 01:13:34;;;;;;;13.65;5.80;;;;;;;9.25;47.97;101051.16;4982840;28;20050;-83
2023/04/04 01:16:02;;;;;;;13.43;5.07;;;;;;;9.48;47.01;101074.09;4981180;28;20071;-81
2023/04/04 01:18:32;;;;;;;12.73;5.45;;;;;;;8.89;47.34;101000.06;4982969;28;20059;-83
2023/04/04 01:21:09;;;;;;;17.63;5.43;;;;;;;9.18;46.60;101037.56;4981221;28;20080;-81
2023/04/04 01:24:04;;;;;;;12.38;5.35;;;;;;;9.35;46.49;101076.88;4984769;28;20472;-80
2023/04/04 01:26:31;;;;;;;12.90;4.60;;;;;;;9.19;46.69;101071.03;4981680;28;20509;-82
2023/04/04 01:28:58;;;;;;;15.70;6.22;;;;;;;9.23;46.35;101056.59;4983111;28;20052;-82
2023/04/04 01:31:56;;;;;;;12.10;4.90;;;;;;;9.13;46.79;101077.66;4981774;28;20061;-81
2023/04/04 01:35:19;;;;;;;9.68;5.25;;;;;;;9.07;46.37;101075.44;4998173;28;20826;-82
2023/04/04 01:38:13;;;;;;;14.10;5.47;;;;;;;8.96;46.57;101078.06;4955633;28;20145;-80
2023/04/04 01:40:54;;;;;;;9.68;4.72;;;;;;;8.98;46.87;101070.81;4962816;28;20054;-82
2023/04/04 01:43:21;;;;;;;15.18;5.68;;;;;;;9.15;45.77;101069.56;4983168;28;20081;-80
2023/04/04 01:45:49;;;;;;;9.95;5.82;;;;;;;8.84;46.23;101044.56;4976742;28;20065;-79
2023/04/04 01:48:16;;;;;;;15.40;5.97;;;;;;;8.53;46.51;101004.47;4966734;28;20420;-81
2023/04/04 01:50:46;;;;;;;11.05;5.82;;;;;;;8.43;47.36;101029.94;4961571;28;20265;-80
2023/04/04 01:53:13;;;;;;;11.02;5.88;;;;;;;8.60;46.76;101063.94;4964647;28;20185;-80
2023/04/04 01:55:39;;;;;;;15.30;5.60;;;;;;;8.70;47.32;101078.19;4980358;28;20056;-80
2023/04/04 01:58:06;;;;;;;14.55;5.15;;;;;;;8.69;46.30;101067.69;4963711;28;20045;-81
2023/04/04 02:00:44;;;;;;;16.80;4.97;;;;;;;8.54;46.39;101045.84;4975229;28;20175;-82
2023/04/04 02:03:11;;;;;;;12.80;5.45;;;;;;;8.73;46.10;101085.88;4988065;28;20062;-80
2023/04/04 02:05:39;;;;;;;7.40;5.00;;;;;;;8.85;46.44;101084.16;4961496;28;20064;-82
2023/04/04 02:08:06;;;;;;;9.38;5.53;;;;;;;8.77;45.75;101071.47;4985663;28;20105;-81
2023/04/04 02:10:33;;;;;;;13.60;5.00;;;;;;;8.84;46.03;101085.13;4960784;28;20049;-82
2023/04/04 02:13:09;;;;;;;13.43;5.47;;;;;;;8.72;46.34;101089.50;4957945;28;20421;-82
2023/04/04 02:15:36;;;;;;;11.10;6.05;;;;;;;8.66;46.14;101083.81;4968931;28;20558;-81
2023/04/04 02:18:06;;;;;;;9.93;5.50;;;;;;;8.53;46.02;101063.53;5000041;28;20042;-83
2023/04/04 02:20:35;;;;;;;12.00;5.18;;;;;;;8.48;45.85;101075.41;4984009;28;20085;-82
2023/04/04 02:23:05;;;;;;;13.70;5.47;;;;;;;8.38;46.07;101069.09;4977270;28;20049;-81
2023/04/04 02:25:32;;;;;;;10.98;6.03;;;;;;;8.30;45.77;101059.03;4980310;28;20200;-80
2023/04/04 02:28:03;;;;;;;13.43;5.63;;;;;;;7.98;45.83;100997.88;4998290;28;20229;-82
2023/04/04 02:30:33;;;;;;;20.95;5.78;;;;;;;8.36;45.93;101074.47;4983647;28;20336;-79
2023/04/04 02:33:00;;;;;;;9.32;5.38;;;;;;;8.24;45.32;101046.25;4975949;28;20065;-80
2023/04/04 02:35:31;;;;;;;15.98;5.70;;;;;;;8.58;45.72;101078.25;5000923;28;20411;-79
2023/04/04 02:38:16;;;;;;;10.88;5.15;;;;;;;8.35;45.23;101039.25;4972210;28;20056;-82
2023/04/04 02:40:50;;;;;;;12.25;5.60;;;;;;;8.40;44.90;101069.81;4978789;28;20058;-82
2023/04/04 02:43:17;;;;;;;9.32;5.13;;;;;;;8.45;45.26;101078.28;4995369;28;20132;-80
2023/04/04 02:45:46;;;;;;;16.45;6.28;;;;;;;7.99;45.92;101020.72;4961821;28;20411;-81
2023/04/04 02:48:37;;;;;;;11.07;5.20;;;;;;;8.02;45.61;101021.34;4967131;28;20050;-81
2023/04/04 02:51:03;;;;;;;15.38;5.78;;;;;;;8.19;45.68;101070.38;4956055;28;20050;-81
2023/04/04 02:53:30;;;;;;;11.23;5.90;;;;;;;8.10;46.13;101031.38;4961188;28;20046;-80
2023/04/04 02:55:57;;;;;;;13.55;5.75;;;;;;;8.29;45.93;101070.56;4957707;28;20071;-79
2023/04/04 02:58:26;;;;;;;12.75;5.50;;;;;;;8.34;45.82;101065.78;4975820;28;20514;-81
2023/04/04 03:01:03;;;;;;;18.33;5.78;;;;;;;8.23;46.08;101071.00;4958554;28;20042;-81
2023/04/04 03:03:31;;;;;;;10.00;5.45;;;;;;;8.15;46.00;101063.63;4964064;28;20562;-79
2023/04/04 03:06:01;;;;;;;9.35;5.53;;;;;;;8.01;46.26;101024.97;4960385;28;20052;-79
2023/04/04 03:08:36;;;;;;;16.33;6.07;;;;;;;8.22;46.60;101064.88;4967872;28;20072;-81
2023/04/04 03:11:03;;;;;;;13.32;5.75;;;;;;;8.20;46.22;101065.94;4972278;28;20065;-80
2023/04/04 03:13:30;;;;;;;9.20;5.53;;;;;;;8.07;46.03;101029.78;4969204;28;20095;-80
2023/04/04 03:16:05;;;;;;;15.27;5.57;;;;;;;8.17;45.87;101072.28;4974611;28;20065;-81
2023/04/04 03:18:35;;;;;;;10.05;5.30;;;;;;;8.01;46.44;101053.19;4960152;28;20256;-82
2023/04/04 03:21:07;;;;;;;13.10;5.70;;;;;;;8.08;46.27;101079.09;4958545;28;20053;-82
2023/04/04 03:23:43;;;;;;;12.07;5.82;;;;;;;8.08;46.29;101075.59;4955495;28;20054;-80
2023/04/04 03:26:14;;;;;;;12.77;6.20;;;;;;;7.78;46.80;101028.38;4960603;28;20060;-82
2023/04/04 03:28:47;;;;;;;12.90;6.15;;;;;;;7.79;46.38;101036.22;4967614;28;20058;-79
2023/04/04 03:31:14;;;;;;;14.82;5.93;;;;;;;7.80;47.10;101031.75;4967991;28;20058;-79
2023/04/04 03:33:44;;;;;;;13.15;5.72;;;;;;;7.80;46.84;101042.34;4962836;28;20460;-82
2023/04/04 03:36:16;;;;;;;11.77;5.88;;;;;;;7.77;46.03;101038.13;4981499;28;20049;-81
2023/04/04 03:38:45;;;;;;;13.70;5.20;;;;;;;7.59;46.02;101010.31;4982083;28;20049;-81
2023/04/04 03:41:11;;;;;;;13.32;5.97;;;;;;;7.64;46.86;101031.97;4985157;28;20049;-80
2023/04/04 03:43:38;;;;;;;14.38;6.35;;;;;;;7.90;46.49;101081.22;4992696;28;20112;-80
2023/04/04 03:46:06;;;;;;;12.60;5.38;;;;;;;7.88;47.25;101077.84;4963033;28;20443;-80
2023/04/04 03:48:36;;;;;;;16.52;6.28;;;;;;;7.76;47.43;101068.13;4960986;28;20219;-80
2023/04/04 03:51:07;;;;;;;17.08;5.43;;;;;;;7.96;47.24;101073.81;4978152;28;20161;-81
2023/04/04 03:53:43;;;;;;;14.52;6.38;;;;;;;7.64;46.77;101047.84;4959042;28;20130;-82
2023/04/04 03:56:17;;;;;;;16.75;5.95;;;;;;;7.11;46.58;100976.63;4963828;28;20740;-81
2023/04/04 03:58:47;;;;;;;19.38;6.40;;;;;;;7.64;47.18;101076.91;4956618;28;20123;-82
2023/04/04 04:01:22;;;;;;;12.88;5.68;;;;;;;7.42;46.96;101062.53;4961239;28;20046;-81
2023/04/04 04:03:56;;;;;;;18.83;6.13;;;;;;;7.50;47.62;101088.44;4954141;28;20384;-82
2023/04/04 04:06:23;;;;;;;12.07;5.68;;;;;;;7.38;46.91;101058.41;4962561;28;20296;-80
2023/04/04 04:08:50;;;;;;;11.10;6.25;;;;;;;7.06;47.06;101003.34;4972183;28;20268;-80
2023/04/04 04:11:16;;;;;;;10.15;6.32;;;;;;;7.51;47.08;101084.00;4961625;28;20050;-82
2023/04/04 04:13:44;;;;;;;9.32;5.70;;;;;;;7.15;46.95;101030.91;4970465;28;20179;-80
2023/04/04 04:16:16;;;;;;;12.55;5.28;;;;;;;7.22;46.86;101032.19;4972633;28;20137;-80
2023/04/04 04:18:43;;;;;;;11.00;6.03;;;;;;;7.48;46.25;101079.75;4978733;28;20141;-79
2023/04/04 04:21:12;;;;;;;10.90;6.25;;;;;;;7.53;47.05;101087.38;4971163;28;20258;-79
2023/04/04 04:23:41;;;;;;;14.07;5.85;;;;;;;7.35;46.48;101079.72;4973337;28;20111;-78
2023/04/04 04:26:15;;;;;;;15.18;6.05;;;;;;;7.42;46.33;101073.09;4961833;28;20054;-82
2023/04/04 04:28:41;;;;;;;18.00;6.13;;;;;;;7.38;45.84;101073.41;4972541;28;20058;-82
2023/04/04 04:31:09;;;;;;;16.25;5.80;;;;;;;7.39;46.29;101085.66;4969070;28;20125;-82
2023/04/04 04:33:39;;;;;;;11.90;5.88;;;;;;;7.24;45.79;101061.97;4976891;28;20042;-82
2023/04/04 04:36:11;;;;;;;17.48;6.10;;;;;;;7.49;45.79;101092.84;4981201;28;20046;-82
2023/04/04 04:38:38;;;;;;;12.65;5.88;;;;;;;7.60;45.43;101113.28;4976738;28;20057;-80
2023/04/04 04:41:08;;;;;;;13.43;5.65;;;;;;;7.41;45.61;101089.91;4973490;28;20232;-82
2023/04/04 04:43:43;;;;;;;16.90;5.60;;;;;;;7.21;45.85;101041.06;4979436;28;20187;-80
2023/04/04 04:46:12;;;;;;;18.20;5.45;;;;;;;7.41;45.78;101095.19;4967499;28;20493;-80
2023/04/04 04:48:38;;;;;;;16.27;5.78;;;;;;;7.46;45.92;101108.91;4955140;28;20484;-82
2023/04/04 04:51:05;;;;;;;12.05;6.25;;;;;;;7.32;46.10;101087.03;4980424;28;20464;-80
2023/04/04 04:53:32;;;;;;;10.95;6.03;;;;;;;7.52;46.38;101123.50;4977448;28;20054;-82
2023/04/04 04:56:02;;;;;;;16.08;5.95;;;;;;;7.58;46.05;101132.81;4975922;28;20254;-83
2023/04/04 04:58:32;;;;;;;12.02;6.30;;;;;;;7.45;46.52;101120.44;4972594;28;20051;-80
2023/04/04 05:01:01;;;;;;;15.27;5.72;;;;;;;7.43;46.10;101124.16;4977244;28;20329;-81
2023/04/04 05:03:34;;;;;;;20.33;12.07;;;;;;;7.47;46.49;101142.28;4999260;28;20183;-81
2023/04/04 05:06:06;;;;;;;17.38;5.80;;;;;;;7.25;47.03;101115.63;4996912;28;20417;-81
2023/04/04 05:08:35;;;;;;;16.77;6.78;;;;;;;7.41;46.98;101145.38;4984015;28;20091;-80
2023/04/04 05:11:01;;;;;;;16.00;5.65;;;;;;;6.98;46.75;101082.19;4987134;28;20045;-80
2023/04/04 05:13:31;;;;;;;14.05;5.40;;;;;;;6.87;47.03;101073.28;4981034;28;20050;-82
2023/04/04 05:15:58;;;;;;;15.05;5.88;;;;;;;7.18;47.23;101146.03;4964099;28;20053;-82
2023/04/04 05:18:26;;;;;;;13.65;5.22;;;;;;;7.13;47.24;101132.31;4986410;28;20153;-81
2023/04/04 05:20:53;;;;;;;15.45;6.25;;;;;;;6.77;47.04;101084.47;4967992;28;20057;-82
2023/04/04 05:23:22;;;;;;;17.67;6.50;;;;;;;6.78;47.27;101101.16;4980137;28;20042;-81
2023/04/04 05:25:52;;;;;;;11.55;6.38;;;;;;;7.04;47.43;101128.50;4966179;28;20241;-81
2023/04/04 05:28:22;;;;;;;12.18;5.78;;;;;;;6.73;47.79;101088.25;4963900;28;20057;-81
2023/04/04 05:30:50;;;;;;;15.80;6.40;;;;;;;7.03;47.60;101130.25;4958018;28;20149;-81
2023/04/04 05:33:17;;;;;;;21.23;7.30;;;;;;;7.25;47.34;101164.00;4952898;28;20057;-81
2023/04/04 05:35:44;;;;;;;13.90;7.32;;;;;;;7.00;47.16;101106.72;4966086;28;20710;-81
2023/04/04 05:38:23;;;;;;;16.42;5.97;;;;;;;7.37;47.34;101183.50;4990555;28;20058;-79
2023/04/04 05:40:56;;;;;;;15.90;7.25;;;;;;;7.19;46.55;101147.75;4959029;28;20053;-81
2023/04/04 05:43:32;;;;;;;15.15;5.88;;;;;;;7.27;47.08;101174.50;4982970;28;20046;-80
2023/04/04 05:45:59;;;;;;;13.52;6.72;;;;;;;7.19;46.97;101163.59;4963866;28;20512;-80
2023/04/04 05:48:25;;;;;;;12.35;6.43;;;;;;;7.09;46.75;101136.09;4982185;28;20131;-81
2023/04/04 05:50:52;;;;;;;8.82;6.10;;;;;;;7.03;46.32;101116.22;4978468;28;20314;-82
2023/04/04 05:53:19;;;;;;;13.20;6.25;;;;;;;7.53;46.47;101203.63;4977201;28;20068;-82
2023/04/04 05:55:57;;;;;;;12.52;6.07;;;;;;;6.76;45.83;101044.97;4972928;28;20315;-78
2023/04/04 05:58:25;;;;;;;9.52;6.30;;;;;;;7.68;45.58;101192.03;4982448;28;20061;-80
2023/04/04 06:00:57;;;;;;;17.17;6.35;;;;;;;7.72;45.64;101193.53;4946960;28;20049;-79
2023/04/04 06:03:27;;;;;;;11.45;6.43;;;;;;;7.77;45.29;101190.53;4938667;28;20413;-80
2023/04/04 06:05:54;;;;;;;16.67;7.00;;;;;;;7.67;45.54;101170.03;4974798;28;20054;-82
2023/04/04 06:08:24;;;;;;;17.05;12.02;;;;;;;7.58;45.35;101143.41;4961457;28;20353;-80
2023/04/04 06:10:54;;;;;;;15.65;6.82;;;;;;;7.78;45.66;101161.38;4963040;28;20052;-80
2023/04/04 06:13:21;;;;;;;11.82;5.97;;;;;;;7.96;45.12;101169.00;4980535;28;20415;-78
2023/04/04 06:15:48;;;;;;;12.63;5.95;;;;;;;7.39;45.19;101091.78;4975679;28;20056;-81
2023/04/04 06:18:18;;;;;;;13.88;5.95;;;;;;;8.08;45.55;101189.28;4987283;28;20056;-82
2023/04/04 06:21:03;;;;;;;13.85;7.13;;;;;;;8.25;45.00;101189.00;4983447;28;20395;-79
2023/04/04 06:23:33;;;;;;;12.73;6.68;;;;;;;7.87;45.50;101134.31;4979117;28;20415;-81
2023/04/04 06:26:02;;;;;;;11.95;5.50;;;;;;;8.18;44.20;101179.78;4991311;28;20049;-81
2023/04/04 06:28:29;;;;;;;14.75;6.80;;;;;;;8.13;44.84;101166.00;4999512;28;20049;-80
2023/04/04 06:31:01;;;;;;;14.63;6.43;;;;;;;8.33;45.27;101199.88;4971142;28;20046;-80
2023/04/04 06:33:28;;;;;;;14.30;6.22;;;;;;;8.12;45.11;101169.63;4990880;28;20297;-81
2023/04/04 06:35:55;;;;;;;10.77;5.40;;;;;;;8.18;45.43;101178.94;4986136;28;20065;-80
2023/04/04 06:38:24;;;;;;;12.38;5.97;;;;;;;8.34;45.40;101195.41;4979727;28;20054;-79
2023/04/04 06:40:51;;;;;;;24.60;6.25;;;;;;;8.45;45.53;101200.00;5005599;28;20048;-81
2023/04/04 06:43:26;;;;;;;9.65;5.57;;;;;;;8.21;45.67;101155.78;4988227;28;20050;-81
2023/04/04 06:46:00;;;;;;;14.00;5.40;;;;;;;8.37;45.62;101174.03;4972403;28;20129;-79
2023/04/04 06:48:26;;;;;;;10.30;6.05;;;;;;;8.61;44.80;101192.66;4960722;28;20057;-80
2023/04/04 06:51:00;;;;;;;16.95;6.10;;;;;;;8.59;45.13;101178.69;4986470;28;20332;-80
2023/04/04 06:53:27;;;;;;;12.77;5.47;;;;;;;8.81;44.73;101208.91;4986082;28;20042;-82
2023/04/04 06:55:54;;;;;;;7.70;5.32;;;;;;;8.68;44.09;101151.56;4959043;28;20069;-82
2023/04/04 06:58:20;;;;;;;10.77;5.72;;;;;;;8.95;43.92;101203.47;4974554;28;20050;-81
2023/04/04 07:00:55;;;;;;;14.93;5.90;;;;;;;8.88;43.55;101210.16;4954729;28;20042;-80
2023/04/04 07:03:26;;;;;;;10.45;4.88;;;;;;;8.02;43.03;101057.53;4973964;28;20353;-82
2023/04/04 07:05:52;;;;;;;13.55;5.18;;;;;;;8.94;42.80;101215.03;4977728;28;20369;-81
2023/04/04 07:08:34;;;;;;;17.00;5.78;;;;;;;8.80;42.74;101178.94;5004803;28;20421;-84
2023/04/04 07:11:25;;;;;;;11.48;5.32;;;;;;;8.77;42.82;101142.97;4977220;28;20063;-83
2023/04/04 07:13:56;;;;;;;13.80;5.22;;;;;;;9.15;42.69;101213.47;4978161;28;20483;-81
2023/04/04 07:16:42;;;;;;;10.35;5.25;;;;;;;8.87;41.93;101160.81;4972074;28;20136;-82
2023/04/04 07:19:16;;;;;;;8.77;5.15;;;;;;;9.01;42.33;101173.91;4962952;28;20048;-82
2023/04/04 07:21:47;;;;;;;14.05;5.95;;;;;;;9.16;42.06;101183.38;4975720;28;20274;-82
2023/04/04 07:24:13;;;;;;;12.27;5.32;;;;;;;9.12;41.64;101176.59;5000753;28;20045;-83
2023/04/04 07:26:40;;;;;;;11.30;5.18;;;;;;;9.38;41.61;101189.72;4988734;28;20045;-83
2023/04/04 07:29:10;;;;;;;9.23;5.00;;;;;;;9.23;40.92;101182.94;5003310;28;20634;-81
2023/04/04 07:31:44;;;;;;;12.60;4.88;;;;;;;9.44;40.59;101176.00;5008018;28;20052;-78
2023/04/04 07:34:13;;;;;;;13.73;5.25;;;;;;;9.47;41.11;101191.69;4992028;28;20275;-83
2023/04/04 07:36:49;;;;;;;11.88;4.93;;;;;;;9.37;40.53;101196.00;4995074;28;20046;-79
2023/04/04 07:39:18;;;;;;;12.60;5.57;;;;;;;8.85;40.78;101094.72;4992434;28;20506;-82
2023/04/04 07:41:50;;;;;;;10.95;5.05;;;;;;;9.37;41.77;101174.81;4980579;28;20272;-83
2023/04/04 07:44:24;;;;;;;9.30;4.35;;;;;;;9.34;40.41;101161.75;4975237;28;20049;-82
2023/04/04 07:46:58;;;;;;;13.52;5.15;;;;;;;9.16;40.12;101105.72;4951005;28;20061;-84
2023/04/04 07:49:40;;;;;;;11.98;5.10;;;;;;;9.79;39.59;101201.69;4976473;28;20048;-77
2023/04/04 07:52:07;;;;;;;10.70;4.72;;;;;;;9.55;40.06;101194.59;4982916;28;20037;-82
2023/04/04 07:54:35;;;;;;;8.88;4.57;;;;;;;9.73;39.52;101196.81;4984072;28;20386;-83
2023/04/04 07:57:04;;;;;;;13.93;5.72;;;;;;;9.70;39.54;101186.47;4991059;28;20438;-82
2023/04/04 07:59:41;;;;;;;9.93;4.60;;;;;;;9.98;38.85;101228.47;4979923;28;20053;-83
2023/04/04 08:02:15;;;;;;;11.73;5.32;;;;;;;9.51;38.08;101142.78;4978265;28;20133;-80
2023/04/04 08:04:49;;;;;;;13.25;4.60;;;;;;;9.84;37.44;101196.84;4989828;28;20119;-83
2023/04/04 08:07:16;;;;;;;10.10;4.53;;;;;;;9.22;38.00;101107.88;4983932;28;20327;-82
2023/04/04 08:09:48;;;;;;;14.98;5.93;;;;;;;9.79;38.45;101217.59;4956087;28;20096;-82
2023/04/04 08:12:32;;;;;;;16.85;5.20;;;;;;;9.86;38.44;101205.56;4959120;28;20367;-80
2023/04/04 08:14:58;;;;;;;11.73;5.53;;;;;;;9.71;38.05;101193.44;4981129;28;20564;-79
2023/04/04 08:17:25;;;;;;;7.28;4.57;;;;;;;9.74;37.85;101223.22;4978525;28;20042;-80
2023/04/04 08:19:52;;;;;;;12.73;5.88;;;;;;;9.89;37.84;101223.03;4985987;28;20215;-80
2023/04/04 08:22:22;;;;;;;11.52;5.45;;;;;;;9.51;38.42;101185.19;5002235;28;20426;-80
2023/04/04 08:24:55;;;;;;;30.13;6.65;;;;;;;9.95;37.56;101220.78;4981735;28;20503;-80
2023/04/04 08:27:22;;;;;;;18.85;4.68;;;;;;;9.87;37.65;101204.56;4981315;28;20130;-79
2023/04/04 08:30:02;;;;;;;11.13;5.03;;;;;;;9.87;36.78;101193.13;4997104;28;20217;-80
2023/04/04 08:32:30;;;;;;;10.20;4.63;;;;;;;9.60;36.83;101186.31;4975215;28;20334;-80
2023/04/04 08:35:02;;;;;;;10.43;4.68;;;;;;;9.86;37.02;101194.94;4995806;28;20049;-80
2023/04/04 08:37:31;;;;;;;11.00;4.57;;;;;;;9.93;36.95;101190.03;4979563;28;20045;-81
2023/04/04 08:40:06;;;;;;;12.63;4.70;;;;;;;9.37;36.21;101076.75;4982438;28;20055;-79
2023/04/04 08:42:35;;;;;;;8.88;4.43;;;;;;;9.82;36.23;101164.31;4969931;28;20037;-81
2023/04/04 08:45:08;;;;;;;9.13;4.43;;;;;;;10.22;35.52;101228.41;4994752;28;20049;-78
2023/04/04 08:47:45;;;;;;;8.30;4.30;;;;;;;9.69;35.39;101115.84;4964101;28;20085;-79
2023/04/04 08:50:35;;;;;;;13.43;4.82;;;;;;;10.33;35.16;101206.34;4959611;28;20042;-80
2023/04/04 08:53:04;;;;;;;9.65;4.50;;;;;;;10.27;34.92;101185.59;4965764;28;20046;-80
2023/04/04 08:55:31;;;;;;;11.05;4.38;;;;;;;10.57;34.93;101216.84;4974152;28;20049;-80
2023/04/04 08:58:06;;;;;;;13.35;4.70;;;;;;;10.32;34.38;101175.50;4984269;28;20415;-79
2023/04/04 09:00:40;;;;;;;9.13;5.43;;;;;;;10.51;34.33;101219.16;4972473;28;20408;-80
2023/04/04 09:03:36;;;;;;;10.57;4.88;;;;;;;10.42;35.51;101170.31;4989404;28;20050;-77
2023/04/04 09:06:07;;;;;;;7.22;4.75;;;;;;;10.10;34.70;101130.31;4988112;28;20284;-80
2023/04/04 09:08:34;;;;;;;9.75;4.38;;;;;;;10.43;34.88;101171.97;4969927;28;20111;-81
2023/04/04 09:11:05;;;;;;;18.77;5.10;;;;;;;10.54;33.83;101187.06;4960558;28;20053;-80
2023/04/04 09:13:36;;;;;;;13.93;4.53;;;;;;;10.42;34.54;101170.31;4973659;28;20131;-80
2023/04/04 09:16:06;;;;;;;10.82;5.05;;;;;;;10.03;34.53;101100.81;5009165;28;20045;-81
2023/04/04 09:18:35;;;;;;;13.00;4.45;;;;;;;10.76;34.67;101213.59;4990322;28;20056;-80
2023/04/04 09:21:12;;;;;;;7.70;4.68;;;;;;;10.37;35.06;101172.47;4981414;28;20053;-81
2023/04/04 09:23:43;;;;;;;14.43;4.75;;;;;;;10.84;35.58;101213.81;4989585;28;20073;-80
2023/04/04 09:26:12;;;;;;;9.10;5.07;;;;;;;10.73;35.32;101171.34;4988483;28;20056;-81
2023/04/04 09:28:56;;;;;;;13.23;4.68;;;;;;;11.13;34.42;101194.66;4991999;28;20064;-81
2023/04/04 09:31:23;;;;;;;9.57;4.20;;;;;;;11.08;34.16;101183.56;4993158;28;20065;-81
2023/04/04 09:33:50;;;;;;;10.48;4.43;;;;;;;11.10;34.30;101189.63;5005481;28;20041;-80
2023/04/04 09:36:18;;;;;;;7.40;4.35;;;;;;;11.49;34.39;101220.03;4991393;28;20585;-80
2023/04/04 09:38:47;;;;;;;15.23;5.03;;;;;;;11.62;33.89;101222.50;4996888;28;20437;-79
2023/04/04 09:41:17;;;;;;;8.68;4.18;;;;;;;11.76;33.54;101224.84;4978343;28;20408;-80
2023/04/04 09:44:01;;;;;;;11.63;5.40;;;;;;;11.73;34.04;101224.28;4982639;28;20286;-80
2023/04/04 09:46:36;;;;;;;10.43;5.35;;;;;;;11.21;34.66;101123.13;4983562;28;20100;-79
2023/04/04 09:49:09;;;;;;;9.27;4.78;;;;;;;12.01;34.95;101212.16;4971786;28;20123;-81
2023/04/04 09:51:40;;;;;;;19.55;4.72;;;;;;;11.96;33.50;101201.06;4986125;28;20144;-79
2023/04/04 09:54:20;;;;;;;9.60;4.43;;;;;;;11.85;33.64;101163.88;4983823;28;20246;-80
2023/04/04 09:57:00;;;;;;;7.55;4.47;;;;;;;12.03;33.15;101193.41;4972133;28;20057;-80
2023/04/04 09:59:33;;;;;;;10.48;5.47;;;;;;;12.02;33.34;101197.91;5006690;28;20060;-81
2023/04/04 10:02:01;;;;;;;9.23;4.20;;;;;;;11.59;33.89;101111.09;4986192;28;20278;-79
2023/04/04 10:04:31;;;;;;;9.23;4.70;;;;;;;12.04;34.33;101168.47;4963604;28;20420;-80
2023/04/04 10:06:58;;;;;;;12.93;5.53;;;;;;;12.65;33.86;101203.09;4952217;28;20452;-78
2023/04/04 10:09:27;;;;;;;11.52;4.95;;;;;;;12.54;33.73;101177.38;4967971;28;20608;-81
2023/04/04 10:12:12;;;;;;;11.35;4.85;;;;;;;12.67;33.95;101202.94;4971040;28;20053;-80
2023/04/04 10:14:39;;;;;;;10.73;5.70;;;;;;;12.84;33.68;101212.97;4998303;28;20045;-82
2023/04/04 10:17:08;;;;;;;10.15;4.43;;;;;;;12.93;33.81;101225.44;4982920;28;20560;-81
2023/04/04 10:19:38;;;;;;;10.05;4.60;;;;;;;13.00;31.64;101215.94;4969852;28;20046;-81
2023/04/04 10:22:05;;;;;;;9.15;4.65;;;;;;;12.87;31.30;101196.69;4990874;28;20230;-78
2023/04/04 10:24:32;;;;;;;9.32;4.75;;;;;;;13.22;31.73;101208.66;4991208;28;20038;-81
2023/04/04 10:27:00;;;;;;;7.45;4.45;;;;;;;13.20;32.25;101218.63;4994586;28;20060;-82
2023/04/04 10:29:40;;;;;;;9.10;4.93;;;;;;;13.21;31.70;101191.00;4990710;28;20085;-80
2023/04/04 10:32:16;;;;;;;12.32;4.70;;;;;;;13.52;31.62;101189.09;5007176;28;20575;-82
2023/04/04 10:35:02;;;;;;;11.65;4.55;;;;;;;13.88;30.49;101222.19;4993836;28;20077;-80
2023/04/04 10:37:47;;;;;;;7.13;4.65;;;;;;;14.01;30.82;101205.03;4986388;28;20311;-81
2023/04/04 10:40:16;;;;;;;11.63;4.72;;;;;;;14.24;30.52;101222.34;4987852;28;20045;-79
2023/04/04 10:42:49;;;;;;;10.02;4.65;;;;;;;14.17;30.13;101207.91;4984699;28;20046;-79
2023/04/04 10:45:16;;;;;;;9.60;4.60;;;;;;;13.99;29.46;101156.28;4980042;28;20348;-79
2023/04/04 10:47:48;;;;;;;9.47;4.60;;;;;;;14.45;29.50;101218.66;4984016;28;20049;-78
2023/04/04 10:50:22;;;;;;;6.60;4.45;;;;;;;14.52;28.58;101188.53;4975825;28;20423;-78
2023/04/04 10:52:50;;;;;;;9.45;5.18;;;;;;;14.73;26.82;101209.69;4993710;28;20054;-79
2023/04/04 10:55:20;;;;;;;13.18;4.28;;;;;;;14.55;27.67;101195.44;4966977;28;20427;-79
2023/04/04 10:57:54;;;;;;;7.97;4.88;;;;;;;15.10;27.46;101218.63;4983064;28;20096;-80
2023/04/04 11:00:25;;;;;;;11.98;4.63;;;;;;;15.03;26.59;101178.28;4982231;28;20360;-81
2023/04/04 11:02:51;;;;;;;7.22;5.20;;;;;;;15.39;26.74;101202.38;4985530;28;20863;-81
2023/04/04 11:05:33;;;;;;;9.85;4.95;;;;;;;15.44;26.44;101209.91;4983010;28;20053;-81
2023/04/04 11:08:01;;;;;;;12.77;4.90;;;;;;;15.56;27.23;101227.44;4985952;28;20049;-80
2023/04/04 11:10:38;;;;;;;13.15;4.90;;;;;;;15.61;26.16;101222.47;4985542;28;20129;-79
2023/04/04 11:13:22;;;;;;;9.23;4.78;;;;;;;15.45;26.88;101211.59;4986088;28;20045;-80
2023/04/04 11:16:03;;;;;;;5.80;4.80;;;;;;;15.63;27.01;101219.63;4990235;28;20138;-81
2023/04/04 11:18:31;;;;;;;11.40;4.43;;;;;;;15.68;26.90;101214.63;4988649;28;20084;-81
2023/04/04 11:21:12;;;;;;;8.13;4.78;;;;;;;16.05;27.29;101210.94;4986674;28;20122;-78
2023/04/04 11:23:50;;;;;;;10.23;4.97;;;;;;;16.14;26.04;101210.84;4987918;28;20047;-79
2023/04/04 11:26:25;;;;;;;10.90;5.72;;;;;;;16.26;25.36;101211.38;5002646;28;20057;-81
2023/04/04 11:29:03;;;;;;;9.88;5.20;;;;;;;15.92;24.82;101163.16;4995382;28;20064;-81
2023/04/04 11:31:49;;;;;;;14.50;5.25;;;;;;;16.31;25.28;101211.78;4985873;28;20266;-79
2023/04/04 11:34:31;;;;;;;12.00;4.97;;;;;;;16.36;25.84;101190.69;4980140;28;20061;-81
2023/04/04 11:37:17;;;;;;;8.55;4.45;;;;;;;16.07;24.57;101158.03;4982994;28;20627;-81
2023/04/04 11:40:12;;;;;;;5.45;3.92;;;;;;;16.11;24.43;101175.47;4987837;28;20228;-79
2023/04/04 11:42:40;;;;;;;11.75;5.03;;;;;;;16.09;24.96;101196.22;4966850;28;20057;-80
2023/04/04 11:45:18;;;;;;;11.02;5.03;;;;;;;16.26;24.76;101207.88;4967126;28;20741;-81